Murphys, California
Current Conditions -  °F | °C
As of 12:15 AM on Tuesday 27 Jan 2015 (Local Time) from KO22 Reporting Station
Overcast Overcast  
Wind Chill: 57°   Ceiling: 11000
Heat Index: 57°   Visibility: 10mi
Dew Point: 36°   Wind: 3mph
Humidity: 44%   Direction: 150°SSE
Pressure: 30.04"   Gusts: NA
Location:  38.15°N, 120.46°W
Report Text: KO22 270815Z AUTO 15003KT 10SM OVC110 14/02 A3004 RMK AO1
Loading
Personal Weather Stations






























Interactive Weather Map New forecast layout! Learn more

10-Day Weather Forecast

Advertisements
Track Severe Weather on mobile